Time;durP1;ratioP1;P1;durP2;ratioP2;P2;SDS_P1;SDS_P2;PMS_P1;PMS_P2;Temp;Humidity;BMP_temperature;BMP_pressure;BME280_temperature;BME280_humidity;BME280_pressure;Samples;Min_cycle;Max_cycle;Signal;HPM_P1;HPM_P2
2023/09/10 00:01:23;;;;;;;15.50;14.20;;;21.00;1.00;;;;;;5095553;28;20199;-41
2023/09/10 00:03:49;;;;;;;14.33;13.03;;;21.00;1.00;;;;;;5114425;28;20433;-41
2023/09/10 00:06:15;;;;;;;15.70;14.40;;;20.90;1.00;;;;;;5114415;28;20191;-44
2023/09/10 00:08:40;;;;;;;15.13;13.80;;;20.90;1.00;;;;;;5114541;28;20219;-41
2023/09/10 00:11:06;;;;;;;16.03;14.53;;;20.90;1.00;;;;;;5115775;28;20179;-39
2023/09/10 00:13:32;;;;;;;14.70;13.40;;;20.90;1.00;;;;;;5115008;28;20195;-41
2023/09/10 00:15:57;;;;;;;16.83;15.13;;;20.90;1.00;;;;;;5114051;28;20465;-42
2023/09/10 00:18:23;;;;;;;16.60;15.10;;;20.90;1.00;;;;;;5114673;28;20188;-45
2023/09/10 00:20:51;;;;;;;17.33;15.83;;;20.90;1.00;;;;;;5114364;28;20513;-40
2023/09/10 00:23:17;;;;;;;16.00;14.60;;;20.90;1.00;;;;;;5115414;28;20818;-39
2023/09/10 00:25:42;;;;;;;16.30;14.90;;;20.90;1.00;;;;;;5097165;28;20409;-40
2023/09/10 00:28:08;;;;;;;16.17;14.77;;;20.90;1.00;;;;;;5113130;28;20211;-40
2023/09/10 00:30:35;;;;;;;15.50;14.03;;;20.90;1.00;;;;;;5114607;28;20196;-42
2023/09/10 00:33:01;;;;;;;15.13;13.57;;;20.80;1.00;;;;;;5113907;28;20184;-40
2023/09/10 00:35:27;;;;;;;15.97;14.67;;;20.80;1.00;;;;;;5118470;28;20544;-44
2023/09/10 00:37:52;;;;;;;14.63;13.37;;;20.80;15.00;;;;;;5118338;28;20179;-41
2023/09/10 00:40:18;;;;;;;14.10;12.87;;;20.80;93.90;;;;;;5100150;28;20934;-44
2023/09/10 00:47:35;;;;;;;14.73;13.40;;;20.70;79.60;;;;;;5115876;27;20265;-40
2023/09/10 00:50:01;;;;;;;16.03;14.73;;;20.70;52.90;;;;;;5097653;28;20203;-44
2023/09/10 00:52:29;;;;;;;15.07;13.77;;;20.70;43.50;;;;;;5116745;28;20418;-41
2023/09/10 00:54:54;;;;;;;15.13;13.63;;;20.70;99.90;;;;;;5117683;28;20521;-40
2023/09/10 00:57:21;;;;;;;14.37;13.17;;;20.80;99.90;;;;;;5117920;28;20461;-41
2023/09/10 00:59:47;;;;;;;14.80;13.60;;;20.70;99.90;;;;;;5116303;28;20191;-40
2023/09/10 01:02:15;;;;;;;16.07;14.70;;;20.70;99.90;;;;;;5117193;28;20502;-40
2023/09/10 01:04:41;;;;;;;16.20;14.63;;;20.70;99.90;;;;;;5117655;28;20480;-41
2023/09/10 01:07:07;;;;;;;14.20;13.00;;;20.60;99.90;;;;;;5098963;28;20516;-41
2023/09/10 01:09:33;;;;;;;15.57;14.17;;;20.60;99.90;;;;;;5117528;28;20739;-38
2023/09/10 01:12:09;;;;;;;15.70;14.30;;;20.60;99.90;;;;;;5118175;28;20186;-40
2023/09/10 01:14:44;;;;;;;15.37;14.00;;;20.50;1.00;;;;;;5101660;28;20183;-43
2023/09/10 01:17:17;;;;;;;16.43;15.03;;;20.60;99.90;;;;;;5119748;28;20854;-41
2023/09/10 01:19:52;;;;;;;15.70;14.00;;;20.60;99.90;;;;;;5102066;28;20663;-40
2023/09/10 01:22:26;;;;;;;15.00;13.70;;;20.50;99.90;;;;;;5118387;28;20849;-40
2023/09/10 01:24:52;;;;;;;15.80;14.40;;;20.50;99.90;;;;;;5117489;28;20417;-40
2023/09/10 01:35:49;;;;;;;15.80;14.30;;;20.40;1.00;;;;;;5112871;27;20228;-39
2023/09/10 01:38:26;;;;;;;15.60;14.33;;;20.40;1.00;;;;;;5116486;28;20308;-40
2023/09/10 01:41:01;;;;;;;14.10;13.03;;;20.40;1.00;;;;;;5115586;28;20440;-42
2023/09/10 01:43:26;;;;;;;15.00;13.70;;;20.50;1.00;;;;;;5096093;28;20444;-44
2023/09/10 01:45:52;;;;;;;14.50;13.27;;;20.40;1.00;;;;;;5113134;28;20470;-40
2023/09/10 01:48:18;;;;;;;15.67;14.27;;;20.40;1.00;;;;;;5096246;28;20215;-41
2023/09/10 01:50:43;;;;;;;14.97;13.60;;;20.40;1.00;;;;;;5115607;28;20464;-41
2023/09/10 01:53:09;;;;;;;15.00;13.70;;;20.40;1.00;;;;;;5115820;28;20544;-40
2023/09/10 01:55:34;;;;;;;14.87;13.63;;;20.40;1.00;;;;;;5114789;28;20187;-40
2023/09/10 01:58:00;;;;;;;14.83;13.63;;;20.30;1.00;;;;;;5115255;28;20184;-41
2023/09/10 02:00:26;;;;;;;15.83;14.53;;;20.30;1.00;;;;;;5116758;28;20183;-39
2023/09/10 02:03:03;;;;;;;14.80;13.50;;;20.30;1.00;;;;;;5117773;28;20260;-39
2023/09/10 02:05:29;;;;;;;15.40;14.07;;;20.30;1.00;;;;;;5116552;28;20477;-42
2023/09/10 02:13:26;;;;;;;14.50;13.30;;;20.30;1.00;;;;;;5115134;28;20476;-42
2023/09/10 02:15:51;;;;;;;15.23;13.80;;;20.20;1.00;;;;;;5116283;28;20279;-41
2023/09/10 02:18:17;;;;;;;14.93;13.63;;;20.20;1.00;;;;;;5117694;28;20205;-41
2023/09/10 02:20:42;;;;;;;15.20;13.90;;;20.20;1.00;;;;;;5118321;28;20192;-39
2023/09/10 02:23:08;;;;;;;16.50;15.00;;;20.30;1.00;;;;;;5117856;28;20184;-41
2023/09/10 02:25:34;;;;;;;14.37;13.03;;;20.30;1.00;;;;;;5118569;28;20215;-41
2023/09/10 02:28:01;;;;;;;14.90;13.50;;;20.30;1.00;;;;;;5116531;28;20576;-42
2023/09/10 02:30:26;;;;;;;15.83;14.43;;;20.20;1.00;;;;;;5117362;28;20231;-39
2023/09/10 02:32:52;;;;;;;15.63;14.23;;;20.30;1.00;;;;;;5117675;28;20816;-40
2023/09/10 02:35:18;;;;;;;15.43;13.93;;;20.20;1.00;;;;;;5118587;28;20441;-40
2023/09/10 02:37:43;;;;;;;16.03;14.37;;;20.20;1.00;;;;;;5073486;28;20241;-39
2023/09/10 02:40:09;;;;;;;14.70;13.30;;;20.10;1.00;;;;;;5112210;28;20203;-41
2023/09/10 02:42:35;;;;;;;14.57;13.27;;;20.10;1.00;;;;;;5085769;28;20231;-40
2023/09/10 02:45:02;;;;;;;15.47;14.23;;;20.10;28.00;;;;;;5096831;28;20441;-41
2023/09/10 02:47:29;;;;;;;14.70;13.53;;;20.10;28.20;;;;;;5092765;28;20200;-40
2023/09/10 02:50:16;;;;;;;15.07;13.87;;;20.10;1.00;;;;;;5117041;28;20467;-39
2023/09/10 02:52:42;;;;;;;15.83;14.50;;;20.10;1.00;;;;;;5098854;28;20795;-42
2023/09/10 02:55:08;;;;;;;15.10;13.70;;;20.10;58.80;;;;;;5118199;28;20457;-38
2023/09/10 02:57:34;;;;;;;15.27;13.87;;;20.10;77.70;;;;;;5083233;28;20595;-44
2023/09/10 02:59:59;;;;;;;19.43;13.47;;;20.10;85.70;;;;;;5118869;28;20433;-40
2023/09/10 03:02:25;;;;;;;15.80;14.37;;;20.10;7.20;;;;;;5099994;28;20180;-42
2023/09/10 03:04:51;;;;;;;14.13;13.00;;;20.00;37.00;;;;;;5117776;28;20183;-42
2023/09/10 03:07:16;;;;;;;15.30;14.10;;;20.00;80.70;;;;;;5117646;28;20180;-41
2023/09/10 03:09:42;;;;;;;15.53;14.07;;;20.00;99.90;;;;;;5116442;28;20184;-41
2023/09/10 03:12:21;;;;;;;15.47;14.07;;;20.00;47.90;;;;;;5115027;28;20230;-39
2023/09/10 03:14:46;;;;;;;15.20;13.63;;;19.90;60.60;;;;;;5116915;28;20180;-39
2023/09/10 03:17:12;;;;;;;15.63;14.17;;;19.90;99.90;;;;;;5115805;28;20482;-41
2023/09/10 03:19:38;;;;;;;15.27;13.87;;;19.90;99.90;;;;;;5117388;28;20540;-38
2023/09/10 03:22:03;;;;;;;16.13;14.60;;;19.90;99.90;;;;;;5116510;28;20506;-42
2023/09/10 03:24:33;;;;;;;15.23;13.90;;;19.90;99.90;;;;;;5115910;28;20203;-41
2023/09/10 03:26:58;;;;;;;14.90;13.70;;;19.90;99.90;;;;;;5116971;28;20211;-43
2023/09/10 03:29:24;;;;;;;15.10;13.77;;;19.90;99.90;;;;;;5116649;28;20515;-39
2023/09/10 03:31:49;;;;;;;14.67;13.43;;;19.90;99.90;;;;;;5117397;28;20617;-39
2023/09/10 03:34:15;;;;;;;14.83;13.60;;;19.90;99.90;;;;;;5116687;28;20485;-39
2023/09/10 03:36:40;;;;;;;13.60;12.50;;;19.80;87.50;;;;;;5116646;28;20461;-42
2023/09/10 03:39:06;;;;;;;14.40;13.20;;;19.80;99.90;;;;;;5117619;28;20191;-39
2023/09/10 03:41:32;;;;;;;14.60;13.30;;;19.80;99.90;;;;;;5118048;28;20194;-41
2023/09/10 03:43:59;;;;;;;15.37;13.97;;;19.80;99.90;;;;;;5116900;28;20433;-42
2023/09/10 03:46:25;;;;;;;14.80;13.40;;;19.80;99.90;;;;;;5115920;28;20274;-39
2023/09/10 03:48:50;;;;;;;15.13;13.83;;;19.80;99.90;;;;;;5116839;28;20659;-40
2023/09/10 03:51:16;;;;;;;13.83;12.70;;;19.70;99.90;;;;;;5116007;28;20638;-41
2023/09/10 03:53:42;;;;;;;15.20;13.70;;;19.80;99.90;;;;;;5115593;28;20488;-41
2023/09/10 03:56:07;;;;;;;15.27;14.00;;;19.70;99.90;;;;;;5115863;28;20242;-40
2023/09/10 03:58:33;;;;;;;14.87;13.57;;;19.70;99.90;;;;;;5115547;28;20316;-39
2023/09/10 04:00:58;;;;;;;15.63;14.33;;;19.60;99.90;;;;;;5115429;28;20442;-40
2023/09/10 04:03:27;;;;;;;14.90;13.40;;;19.60;99.90;;;;;;5097801;28;20191;-41
2023/09/10 04:05:53;;;;;;;14.80;13.50;;;19.60;99.90;;;;;;5116555;28;20309;-41
2023/09/10 04:08:18;;;;;;;15.30;13.63;;;19.50;99.90;;;;;;5099002;28;20465;-40
2023/09/10 04:10:44;;;;;;;14.60;13.40;;;19.50;99.90;;;;;;5101562;28;20452;-41
2023/09/10 04:13:10;;;;;;;13.87;12.77;;;19.50;99.90;;;;;;5119207;28;20481;-40
2023/09/10 04:15:35;;;;;;;15.63;14.33;;;19.50;99.90;;;;;;5118888;28;20210;-42
2023/09/10 04:18:05;;;;;;;14.87;13.50;;;19.50;99.90;;;;;;5118763;28;20203;-39
2023/09/10 04:20:31;;;;;;;15.13;13.60;;;19.60;99.90;;;;;;5118174;28;20203;-38
2023/09/10 04:22:56;;;;;;;15.30;14.00;;;19.60;99.90;;;;;;5119261;28;20460;-40
2023/09/10 04:25:22;;;;;;;14.33;13.23;;;19.60;99.90;;;;;;5121149;28;20230;-40
2023/09/10 04:27:48;;;;;;;15.13;13.60;;;19.60;99.90;;;;;;5102522;28;20383;-40
2023/09/10 04:30:13;;;;;;;15.40;14.00;;;19.60;99.90;;;;;;5120327;28;20191;-42
2023/09/10 04:32:39;;;;;;;15.47;14.13;;;19.50;99.90;;;;;;5119840;28;20320;-41
2023/09/10 04:35:05;;;;;;;16.13;14.37;;;19.50;99.90;;;;;;5119053;28;20275;-41
2023/09/10 04:37:31;;;;;;;14.20;13.00;;;19.50;99.90;;;;;;5118832;28;20211;-40
2023/09/10 04:39:57;;;;;;;16.30;14.80;;;19.50;99.90;;;;;;5101965;28;20433;-41
2023/09/10 04:42:22;;;;;;;14.87;13.50;;;19.50;99.90;;;;;;5118867;28;20439;-41
2023/09/10 04:44:49;;;;;;;14.60;13.43;;;19.50;99.90;;;;;;5119670;28;20179;-39
2023/09/10 04:47:15;;;;;;;14.13;13.03;;;19.50;99.90;;;;;;5120313;28;20248;-46
2023/09/10 04:49:40;;;;;;;14.30;13.10;;;19.50;99.90;;;;;;5120211;28;20434;-41
2023/09/10 04:52:06;;;;;;;14.17;12.93;;;19.50;99.90;;;;;;5120032;28;20472;-40
2023/09/10 04:54:31;;;;;;;13.77;12.77;;;19.50;99.90;;;;;;5120787;28;20276;-41
2023/09/10 04:56:57;;;;;;;15.00;13.80;;;19.50;99.90;;;;;;5119400;28;20262;-40
2023/09/10 04:59:23;;;;;;;15.10;13.63;;;19.50;99.90;;;;;;5120096;28;20534;-38
2023/09/10 05:01:48;;;;;;;14.17;13.00;;;19.50;99.90;;;;;;5102166;28;20227;-40
2023/09/10 05:04:14;;;;;;;15.53;14.20;;;19.50;99.90;;;;;;5119540;28;20196;-41
2023/09/10 05:06:40;;;;;;;14.40;12.87;;;19.50;99.90;;;;;;5117627;28;20202;-40
2023/09/10 05:09:07;;;;;;;14.13;12.90;;;19.50;99.90;;;;;;5118421;28;20593;-42
2023/09/10 05:11:33;;;;;;;16.20;14.90;;;19.50;99.90;;;;;;5118065;28;20274;-41
2023/09/10 05:13:59;;;;;;;14.03;12.93;;;19.50;99.90;;;;;;5116970;28;20945;-41
2023/09/10 05:16:24;;;;;;;15.90;14.30;;;19.50;99.90;;;;;;5118015;28;20199;-42
2023/09/10 05:18:50;;;;;;;14.20;13.13;;;19.60;81.60;;;;;;5097945;28;20511;-38
2023/09/10 05:21:15;;;;;;;15.00;13.80;;;19.60;50.50;;;;;;5114028;28;20192;-43
2023/09/10 05:23:41;;;;;;;14.60;13.40;;;19.60;3.00;;;;;;5114709;28;20190;-40
2023/09/10 05:26:06;;;;;;;14.43;13.23;;;19.70;1.00;;;;;;5096737;28;20451;-41
2023/09/10 05:28:32;;;;;;;15.07;13.60;;;19.70;1.00;;;;;;5115892;28;20288;-40
2023/09/10 05:31:03;;;;;;;15.57;14.27;;;19.70;1.00;;;;;;5115501;28;20184;-40
2023/09/10 05:33:29;;;;;;;15.23;14.00;;;19.70;1.00;;;;;;5098386;28;20203;-45
2023/09/10 05:35:58;;;;;;;13.80;12.70;;;19.80;1.00;;;;;;5117322;28;20417;-39
2023/09/10 05:38:24;;;;;;;13.27;12.10;;;19.80;1.00;;;;;;5118245;28;20194;-41
2023/09/10 05:40:50;;;;;;;14.80;13.40;;;19.90;1.00;;;;;;5118186;28;20429;-43
2023/09/10 05:43:16;;;;;;;14.90;13.50;;;19.90;1.00;;;;;;5118643;28;20494;-40
2023/09/10 05:45:41;;;;;;;14.33;13.00;;;19.90;1.00;;;;;;5118454;28;20203;-43
2023/09/10 05:48:07;;;;;;;15.03;13.60;;;20.00;1.00;;;;;;5117711;28;20223;-40
2023/09/10 05:50:32;;;;;;;13.23;12.03;;;20.00;99.90;;;;;;5117956;28;20211;-40
2023/09/10 05:52:59;;;;;;;14.47;13.03;;;20.10;99.90;;;;;;5118610;28;20184;-39
2023/09/10 05:55:25;;;;;;;13.47;12.37;;;20.20;99.90;;;;;;5118962;28;20267;-42
2023/09/10 05:57:52;;;;;;;14.47;13.10;;;20.30;99.90;;;;;;5118026;28;20723;-39
2023/09/10 06:00:21;;;;;;;14.50;13.40;;;20.30;81.70;;;;;;5116402;28;20464;-42
2023/09/10 06:02:48;;;;;;;13.63;12.47;;;20.40;53.30;;;;;;5116739;28;20413;-39
2023/09/10 06:05:14;;;;;;;12.83;11.83;;;20.50;1.00;;;;;;5117747;28;20422;-40
2023/09/10 06:07:40;;;;;;;15.30;14.10;;;20.60;1.00;;;;;;5117598;28;20472;-38
2023/09/10 06:10:08;;;;;;;14.03;12.83;;;20.80;1.00;;;;;;5117874;28;20524;-40
2023/09/10 06:12:36;;;;;;;14.87;13.63;;;21.00;99.90;;;;;;5116761;28;20314;-41
2023/09/10 06:15:03;;;;;;;13.80;12.70;;;21.10;99.90;;;;;;5115685;28;20461;-41
2023/09/10 06:17:28;;;;;;;16.07;14.67;;;21.20;92.30;;;;;;5116216;28;20452;-42
2023/09/10 06:19:54;;;;;;;15.37;14.00;;;21.40;1.00;;;;;;5116543;28;20437;-41
2023/09/10 06:22:19;;;;;;;15.03;13.93;;;21.60;99.90;;;;;;5116426;28;20187;-40
2023/09/10 06:24:45;;;;;;;15.00;13.70;;;21.80;99.90;;;;;;5116796;28;20191;-39
2023/09/10 06:27:11;;;;;;;15.70;14.30;;;22.00;1.00;;;;;;5116311;28;20188;-41
2023/09/10 06:29:36;;;;;;;14.77;13.60;;;22.10;1.00;;;;;;5115607;28;20248;-42
2023/09/10 06:32:02;;;;;;;15.37;14.07;;;22.30;99.90;;;;;;5117350;28;20180;-41
2023/09/10 06:34:28;;;;;;;14.57;13.37;;;22.40;14.00;;;;;;5118276;28;20202;-42
2023/09/10 06:36:53;;;;;;;15.00;13.70;;;22.50;1.00;;;;;;5116475;28;20195;-41
2023/09/10 06:39:19;;;;;;;14.90;13.60;;;22.70;1.00;;;;;;5118035;28;20206;-39
2023/09/10 06:41:46;;;;;;;16.40;14.90;;;22.80;99.90;;;;;;5118218;28;20183;-40
2023/09/10 06:44:11;;;;;;;16.17;14.60;;;22.80;99.90;;;;;;5117922;28;20186;-41
2023/09/10 06:46:37;;;;;;;14.93;13.70;;;22.80;99.90;;;;;;5117704;28;20425;-38
2023/09/10 06:49:02;;;;;;;15.77;14.30;;;22.80;99.90;;;;;;5116896;28;20564;-38
2023/09/10 06:51:28;;;;;;;14.80;13.50;;;22.80;99.90;;;;;;5116144;28;20454;-42
2023/09/10 06:53:54;;;;;;;16.30;14.70;;;22.80;99.90;;;;;;5115399;28;20481;-37
2023/09/10 06:56:20;;;;;;;14.67;13.27;;;22.90;99.90;;;;;;5114855;28;20179;-37
2023/09/10 06:58:47;;;;;;;14.57;13.40;;;23.00;99.90;;;;;;5116643;28;20992;-38
2023/09/10 07:01:18;;;;;;;15.77;14.47;;;23.10;40.60;;;;;;5118105;28;20546;-40
2023/09/10 07:03:47;;;;;;;15.50;14.20;;;23.20;1.00;;;;;;5098409;28;20433;-39
2023/09/10 07:06:12;;;;;;;14.80;13.57;;;23.30;1.00;;;;;;5099973;28;20525;-39
2023/09/10 07:08:38;;;;;;;13.27;11.90;;;23.40;1.00;;;;;;5116519;28;20567;-39
2023/09/10 07:11:04;;;;;;;14.43;13.30;;;23.50;1.00;;;;;;5117200;28;20256;-40
2023/09/10 07:13:30;;;;;;;13.90;12.60;;;23.70;99.90;;;;;;5117555;28;20289;-39
2023/09/10 07:15:56;;;;;;;15.10;13.90;;;23.90;99.90;;;;;;5097822;28;20195;-39
2023/09/10 07:18:21;;;;;;;15.83;14.40;;;24.10;89.50;;;;;;5115237;28;20517;-39
2023/09/10 07:20:47;;;;;;;12.90;11.90;;;24.20;15.70;;;;;;5114859;28;20850;-37
2023/09/10 07:23:13;;;;;;;15.70;13.20;;;24.40;1.00;;;;;;5112524;28;20184;-37
2023/09/10 07:25:39;;;;;;;13.00;11.73;;;24.50;1.00;;;;;;5095523;28;20244;-36
2023/09/10 07:28:06;;;;;;;12.77;11.70;;;24.50;1.00;;;;;;5113030;28;20228;-38
2023/09/10 07:30:31;;;;;;;13.53;12.43;;;24.50;1.00;;;;;;5114010;28;20444;-39
2023/09/10 07:32:57;;;;;;;13.63;12.33;;;24.60;1.00;;;;;;5114322;28;20425;-34
2023/09/10 07:35:23;;;;;;;15.63;11.80;;;24.80;1.00;;;;;;5114725;28;20454;-43
2023/09/10 07:37:48;;;;;;;12.70;11.47;;;24.90;99.90;;;;;;5115852;28;20192;-43
2023/09/10 07:40:14;;;;;;;13.40;12.17;;;25.10;99.90;;;;;;5115867;28;20472;-43
2023/09/10 07:42:40;;;;;;;14.60;13.20;;;25.40;99.90;;;;;;5113617;28;20219;-43
2023/09/10 07:45:13;;;;;;;14.10;13.00;;;25.60;99.90;;;;;;5116034;28;20437;-43
2023/09/10 07:47:40;;;;;;;13.20;12.03;;;25.70;99.90;;;;;;5115207;28;20502;-43
2023/09/10 07:50:06;;;;;;;12.23;11.20;;;25.80;99.90;;;;;;5115502;28;20441;-43
2023/09/10 07:52:31;;;;;;;12.80;11.20;;;25.90;99.90;;;;;;5115770;28;20429;-43
2023/09/10 07:54:57;;;;;;;11.13;10.33;;;26.10;89.70;;;;;;5115935;28;20510;-43
2023/09/10 07:57:24;;;;;;;11.60;10.60;;;26.40;55.50;;;;;;5115016;28;20491;-44
2023/09/10 07:59:50;;;;;;;14.47;11.80;;;26.60;34.40;;;;;;5113631;28;20187;-44
2023/09/10 08:02:16;;;;;;;11.90;10.80;;;26.80;4.70;;;;;;5114880;28;20429;-45
2023/09/10 08:04:42;;;;;;;10.93;10.10;;;27.00;1.00;;;;;;5114279;28;20194;-44
2023/09/10 08:07:09;;;;;;;11.53;10.43;;;27.30;1.00;;;;;;5114477;28;20222;-44
2023/09/10 08:09:35;;;;;;;11.27;10.27;;;27.60;1.00;;;;;;5114895;28;20499;-44
2023/09/10 08:12:00;;;;;;;11.53;10.53;;;27.80;1.00;;;;;;5113026;28;20867;-43
2023/09/10 08:14:26;;;;;;;11.83;10.70;;;28.00;1.00;;;;;;5113373;28;20190;-44
2023/09/10 08:16:52;;;;;;;11.10;10.20;;;28.30;1.00;;;;;;5114264;28;20222;-44
2023/09/10 08:19:17;;;;;;;11.10;10.23;;;28.50;1.00;;;;;;5114155;28;20202;-44
2023/09/10 08:21:43;;;;;;;10.70;9.87;;;28.50;1.00;;;;;;5114695;28;20199;-45
2023/09/10 08:24:08;;;;;;;11.37;10.37;;;28.80;1.00;;;;;;5114484;28;20208;-45
2023/09/10 08:26:34;;;;;;;10.57;9.50;;;29.10;1.00;;;;;;5113967;28;20713;-44
2023/09/10 08:28:59;;;;;;;10.60;9.63;;;29.40;1.00;;;;;;5114165;28;20618;-44
2023/09/10 08:31:25;;;;;;;10.17;9.30;;;29.70;1.00;;;;;;5113392;28;20215;-44
2023/09/10 08:33:50;;;;;;;10.30;9.30;;;29.90;1.00;;;;;;5096970;28;20437;-45
2023/09/10 08:36:16;;;;;;;10.60;9.70;;;30.20;1.00;;;;;;5113193;28;20278;-44
2023/09/10 08:38:42;;;;;;;11.87;10.83;;;30.30;1.00;;;;;;5108848;28;20440;-43
2023/09/10 08:41:32;;;;;;;10.93;9.90;;;30.30;1.00;;;;;;5111858;28;20180;-45
2023/09/10 08:43:58;;;;;;;10.10;9.27;;;30.40;1.00;;;;;;5092388;28;20421;-44
2023/09/10 08:46:30;;;;;;;10.80;9.73;;;30.50;1.00;;;;;;5075855;28;20509;-44
2023/09/10 08:49:00;;;;;;;11.00;10.03;;;30.60;1.00;;;;;;5092695;28;21056;-44
2023/09/10 08:51:26;;;;;;;11.30;9.83;;;30.90;1.00;;;;;;5093809;28;20820;-43
2023/09/10 08:53:55;;;;;;;11.50;10.50;;;31.10;1.00;;;;;;5113922;28;20680;-45
2023/09/10 08:56:21;;;;;;;10.73;9.70;;;31.10;1.00;;;;;;5118260;28;20834;-44
2023/09/10 08:58:48;;;;;;;10.60;9.70;;;31.50;1.00;;;;;;5099686;28;20740;-45
2023/09/10 09:01:14;;;;;;;10.30;9.50;;;31.80;1.00;;;;;;5116345;28;20198;-45
2023/09/10 09:03:39;;;;;;;9.73;9.03;;;32.20;1.00;;;;;;5117112;28;20790;-46
2023/09/10 09:06:05;;;;;;;10.40;9.60;;;32.40;1.00;;;;;;5117268;28;20465;-46
2023/09/10 09:08:35;;;;;;;10.20;9.30;;;32.40;1.00;;;;;;5077469;28;20266;-45
2023/09/10 09:11:04;;;;;;;11.80;9.27;;;32.60;1.00;;;;;;5079412;28;20181;-46
2023/09/10 09:13:39;;;;;;;10.60;9.70;;;32.80;1.00;;;;;;5097382;28;20525;-46
2023/09/10 09:16:05;;;;;;;9.47;8.77;;;33.00;1.00;;;;;;5075935;28;20753;-46
2023/09/10 09:18:31;;;;;;;10.10;9.00;;;33.30;1.00;;;;;;5094200;28;20438;-45
2023/09/10 09:21:01;;;;;;;12.13;9.23;;;33.50;1.00;;;;;;5096143;28;20401;-43
2023/09/10 09:23:32;;;;;;;9.67;8.97;;;33.70;1.00;;;;;;5096316;28;20434;-44
2023/09/10 09:25:58;;;;;;;9.80;9.10;;;33.80;1.00;;;;;;5096619;28;20716;-44
2023/09/10 09:28:26;;;;;;;10.07;9.17;;;33.90;1.00;;;;;;5096698;28;20455;-44
2023/09/10 09:30:52;;;;;;;9.07;8.33;;;33.80;1.00;;;;;;5095928;28;20188;-44
2023/09/10 09:33:17;;;;;;;10.50;9.57;;;34.00;1.00;;;;;;5096797;28;20431;-45
2023/09/10 09:35:45;;;;;;;9.50;8.60;;;34.40;1.00;;;;;;5096873;28;20292;-45
2023/09/10 09:38:13;;;;;;;10.83;8.77;;;34.70;1.00;;;;;;5061808;28;20203;-45
2023/09/10 09:40:39;;;;;;;10.27;9.27;;;35.00;1.00;;;;;;5096663;28;20479;-45
2023/09/10 09:43:09;;;;;;;10.00;9.13;;;35.10;1.00;;;;;;5094683;28;20439;-45
2023/09/10 09:45:39;;;;;;;9.47;8.67;;;35.40;1.00;;;;;;5094468;28;20697;-45
2023/09/10 09:48:05;;;;;;;10.10;9.20;;;35.50;1.00;;;;;;5095533;28;20489;-45
2023/09/10 09:50:31;;;;;;;9.63;8.77;;;35.80;1.00;;;;;;5098020;28;20377;-46
2023/09/10 09:52:56;;;;;;;9.90;9.10;;;35.80;1.00;;;;;;5095941;28;20422;-45
2023/09/10 09:55:22;;;;;;;9.27;8.50;;;36.20;1.00;;;;;;5095805;28;20455;-45
2023/09/10 09:57:49;;;;;;;9.77;8.97;;;36.20;1.00;;;;;;5083986;28;20312;-45
2023/09/10 10:00:15;;;;;;;9.83;9.03;;;36.40;1.00;;;;;;5114895;28;20597;-44
2023/09/10 10:02:41;;;;;;;9.40;8.77;;;36.20;1.00;;;;;;5113470;28;20820;-45
2023/09/10 10:05:08;;;;;;;10.17;9.27;;;36.10;1.00;;;;;;5097655;28;20418;-45
2023/09/10 10:07:37;;;;;;;10.10;9.40;;;36.20;1.00;;;;;;5115057;28;20396;-44
2023/09/10 10:10:07;;;;;;;12.40;11.30;;;36.50;1.00;;;;;;5117479;28;20735;-45
2023/09/10 10:12:33;;;;;;;10.67;9.77;;;36.80;1.00;;;;;;5125046;27;20521;-44
2023/09/10 10:14:59;;;;;;;10.23;9.50;;;37.10;1.00;;;;;;5136324;27;20425;-44
2023/09/10 10:17:26;;;;;;;9.57;8.87;;;37.30;1.00;;;;;;5137598;27;20186;-44
2023/09/10 10:19:52;;;;;;;9.13;8.43;;;37.60;1.00;;;;;;5137465;27;20412;-44
2023/09/10 10:22:19;;;;;;;11.27;10.27;;;37.90;1.00;;;;;;5136392;27;20434;-45
2023/09/10 10:24:45;;;;;;;10.60;9.80;;;38.00;1.00;;;;;;5118813;27;20615;-45
2023/09/10 10:27:12;;;;;;;9.67;8.87;;;37.80;1.00;;;;;;5135535;27;20596;-45
2023/09/10 10:29:38;;;;;;;10.20;9.40;;;37.80;1.00;;;;;;5131486;27;20503;-45
2023/09/10 10:32:27;;;;;;;9.33;8.60;;;38.00;1.00;;;;;;5089939;28;20491;-45
2023/09/10 10:34:58;;;;;;;10.67;9.77;;;38.50;1.00;;;;;;5115385;28;20179;-44
2023/09/10 10:37:28;;;;;;;9.90;9.10;;;38.80;1.00;;;;;;5096854;28;20418;-45
2023/09/10 10:39:58;;;;;;;10.17;9.37;;;38.50;1.00;;;;;;5115473;28;20399;-45
2023/09/10 10:42:52;;;;;;;9.50;8.90;;;38.40;1.00;;;;;;5095802;28;20422;-45
2023/09/10 10:45:18;;;;;;;10.03;9.20;;;38.20;1.00;;;;;;5085102;28;20428;-45
2023/09/10 10:47:45;;;;;;;9.60;8.90;;;38.30;1.00;;;;;;5097734;28;20449;-46
2023/09/10 10:50:11;;;;;;;9.63;8.80;;;38.40;1.00;;;;;;5115202;28;20479;-46
2023/09/10 10:52:44;;;;;;;10.10;9.10;;;38.70;1.00;;;;;;5114414;28;20472;-45
2023/09/10 10:55:11;;;;;;;9.90;9.20;;;39.10;1.00;;;;;;5115050;28;20432;-46
2023/09/10 10:57:37;;;;;;;13.73;12.23;;;39.00;1.00;;;;;;5115107;28;20433;-46
2023/09/10 11:00:05;;;;;;;9.70;9.00;;;39.10;1.00;;;;;;5096392;28;20557;-46
2023/09/10 11:02:30;;;;;;;10.57;9.70;;;39.00;1.00;;;;;;5095885;28;20406;-45
2023/09/10 11:04:57;;;;;;;10.03;9.23;;;39.00;1.00;;;;;;5114057;28;20570;-45
2023/09/10 11:07:23;;;;;;;9.33;8.67;;;38.90;1.00;;;;;;5113943;28;20458;-46
2023/09/10 11:09:49;;;;;;;10.87;10.07;;;39.00;1.00;;;;;;5112339;28;20407;-46
2023/09/10 11:12:15;;;;;;;9.83;8.87;;;39.10;1.00;;;;;;5112435;28;20627;-46
2023/09/10 11:14:59;;;;;;;10.33;9.53;;;39.00;1.00;;;;;;5093957;28;20836;-46
2023/09/10 11:17:32;;;;;;;10.00;9.27;;;39.20;1.00;;;;;;5113208;28;20397;-46
2023/09/10 11:19:57;;;;;;;9.40;8.80;;;39.50;1.00;;;;;;5114708;28;20419;-46
2023/09/10 11:22:23;;;;;;;9.23;8.53;;;40.00;1.00;;;;;;5113824;28;20421;-47
2023/09/10 11:25:08;;;;;;;9.93;9.13;;;40.30;1.00;;;;;;5112374;28;20184;-46
2023/09/10 11:27:35;;;;;;;9.60;8.77;;;40.10;1.00;;;;;;5112456;28;20198;-39
2023/09/10 11:30:13;;;;;;;9.03;8.33;;;40.30;1.00;;;;;;5075725;28;20525;-40
2023/09/10 11:32:39;;;;;;;9.80;9.10;;;40.70;1.00;;;;;;5093683;28;21018;-40
2023/09/10 11:35:17;;;;;;;8.43;7.83;;;41.10;1.00;;;;;;5112711;28;20420;-38
2023/09/10 11:37:48;;;;;;;9.70;9.00;;;41.50;1.00;;;;;;5113320;28;20451;-38
2023/09/10 11:40:14;;;;;;;10.20;9.50;;;41.40;1.00;;;;;;5096109;28;20421;-38
2023/09/10 11:42:44;;;;;;;11.10;10.30;;;41.50;1.00;;;;;;5114404;28;20498;-41
2023/09/10 11:45:10;;;;;;;10.07;9.27;;;41.60;1.00;;;;;;5113712;28;20426;-43
2023/09/10 11:47:40;;;;;;;10.63;9.60;;;41.40;1.00;;;;;;5115183;28;20410;-42
2023/09/10 11:50:06;;;;;;;10.50;9.60;;;41.40;1.00;;;;;;5115660;28;20471;-43
2023/09/10 11:52:33;;;;;;;10.40;9.70;;;41.50;1.00;;;;;;5096142;28;20642;-40
2023/09/10 11:54:58;;;;;;;10.93;9.43;;;41.40;1.00;;;;;;5114411;28;20421;-41
2023/09/10 11:57:24;;;;;;;10.10;9.20;;;41.20;1.00;;;;;;5094655;28;20706;-39
2023/09/10 11:59:50;;;;;;;10.70;9.73;;;41.60;1.00;;;;;;5093820;28;20240;-39
2023/09/10 12:02:17;;;;;;;11.20;10.10;;;41.50;1.00;;;;;;5112302;28;20214;-41
2023/09/10 12:04:43;;;;;;;10.30;9.40;;;41.60;1.00;;;;;;5112168;28;20803;-39
2023/09/10 12:07:08;;;;;;;11.17;10.33;;;42.10;1.00;;;;;;5112225;28;20520;-42
2023/09/10 12:09:34;;;;;;;9.97;9.07;;;42.70;1.00;;;;;;5094620;28;20647;-41
2023/09/10 12:12:14;;;;;;;10.60;9.70;;;42.80;1.00;;;;;;5095939;28;20251;-41
2023/09/10 12:14:39;;;;;;;9.43;8.83;;;43.10;1.00;;;;;;5096868;28;20176;-40
2023/09/10 12:17:05;;;;;;;9.63;8.90;;;43.00;1.00;;;;;;5096508;28;20402;-39
2023/09/10 12:19:32;;;;;;;8.97;8.37;;;42.50;1.00;;;;;;5096482;28;20252;-41
2023/09/10 12:21:57;;;;;;;9.93;9.03;;;42.10;1.00;;;;;;5114333;28;20191;-38
2023/09/10 12:24:23;;;;;;;10.07;9.37;;;42.00;1.00;;;;;;5112238;28;20711;-42
2023/09/10 12:26:49;;;;;;;9.40;8.70;;;41.90;1.00;;;;;;5113456;28;20180;-41
2023/09/10 12:29:15;;;;;;;9.10;8.50;;;41.40;1.00;;;;;;5078181;28;20700;-39
2023/09/10 12:31:41;;;;;;;10.10;9.40;;;40.50;1.00;;;;;;5099158;28;20187;-41
2023/09/10 12:34:09;;;;;;;9.83;9.10;;;39.40;1.00;;;;;;5098876;28;20213;-39
2023/09/10 12:36:34;;;;;;;9.57;8.83;;;38.50;1.00;;;;;;5116898;28;20388;-39
2023/09/10 12:39:00;;;;;;;10.67;9.77;;;37.70;1.00;;;;;;5099024;28;20433;-40
2023/09/10 12:41:26;;;;;;;9.77;9.07;;;37.30;1.00;;;;;;5117048;28;20190;-39
2023/09/10 12:43:52;;;;;;;10.23;9.37;;;37.70;1.00;;;;;;5116804;28;20524;-38
2023/09/10 12:46:18;;;;;;;9.80;9.20;;;38.70;1.00;;;;;;5098481;28;20505;-40
2023/09/10 12:48:45;;;;;;;10.57;9.53;;;39.30;1.00;;;;;;5116312;28;20218;-39
2023/09/10 12:51:11;;;;;;;12.10;10.60;;;39.40;1.00;;;;;;5098888;28;20440;-40
2023/09/10 12:53:37;;;;;;;10.87;9.97;;;39.10;1.00;;;;;;5118885;28;20420;-42
2023/09/10 12:56:03;;;;;;;11.20;10.30;;;39.10;1.00;;;;;;5116700;28;20445;-39